Time;durP1;ratioP1;P1;durP2;ratioP2;P2;SDS_P1;SDS_P2;PMS_P1;PMS_P2;Temp;Humidity;BMP_temperature;BMP_pressure;BME280_temperature;BME280_humidity;BME280_pressure;Samples;Min_cycle;Max_cycle;Signal;HPM_P1;HPM_P2
2021/12/15 00:09:01;;;;;;;;;;;;;;;1.68;89.09;100462.34;428728;1318;142811;-59
2021/12/15 00:19:07;;;;;;;63.40;37.00;;;;;;;1.58;88.99;100470.92;433123;1318;128898;-59
2021/12/15 00:29:13;;;;;;;67.20;39.10;;;;;;;1.60;89.33;100477.27;432841;1318;143276;-59
2021/12/15 00:39:22;;;;;;;68.00;37.00;;;;;;;1.67;89.48;100474.45;430044;1318;145102;-59
2021/12/15 00:49:28;;;;;;;59.80;38.30;;;;;;;1.75;89.50;100468.29;430892;1318;142504;-59
2021/12/15 00:59:34;;;;;;;50.80;33.70;;;;;;;1.85;89.57;100466.95;432896;1318;143500;-59
2021/12/15 01:09:46;;;;;;;56.50;35.40;;;;;;;1.86;89.42;100472.45;422621;1318;143171;-58
2021/12/15 01:19:54;;;;;;;68.20;39.30;;;;;;;1.89;89.49;100484.16;428497;1319;141800;-59
2021/12/15 01:30:00;;;;;;;56.70;34.30;;;;;;;1.97;89.53;100491.48;429112;1316;142103;-60
2021/12/15 01:40:11;;;;;;;57.20;37.10;;;;;;;2.03;89.63;100497.27;430707;1318;142322;-59
2021/12/15 01:50:17;;;;;;;59.00;36.00;;;;;;;2.04;89.57;100504.33;432831;1318;145390;-60
2021/12/15 02:00:28;;;;;;;59.00;35.90;;;;;;;2.05;89.59;100504.31;428517;1318;144897;-60
2021/12/15 02:10:37;;;;;;;63.70;35.70;;;;;;;2.09;89.82;100510.82;429659;1318;142515;-58
2021/12/15 02:20:47;;;;;;;58.20;37.80;;;;;;;2.12;89.72;100512.17;421504;1318;142530;-58
2021/12/15 02:30:58;;;;;;;59.30;35.10;;;;;;;2.14;89.76;100516.28;432844;1318;142348;-58
2021/12/15 02:41:09;;;;;;;63.60;36.10;;;;;;;2.19;89.73;100520.17;432877;1318;142480;-63
2021/12/15 02:51:16;;;;;;;54.60;30.70;;;;;;;2.27;89.91;100526.12;432180;1318;143332;-59
2021/12/15 03:01:32;;;;;;;53.90;31.30;;;;;;;2.32;89.98;100530.88;433034;1319;198320;-58
2021/12/15 03:22:02;;;;;;;51.30;31.00;;;;;;;2.37;90.20;100536.34;432799;1318;142739;-58
2021/12/15 03:42:54;;;;;;;48.50;30.10;;;;;;;2.40;90.18;100553.23;432087;1318;146416;-59
2021/12/15 03:53:00;;;;;;;46.50;26.20;;;;;;;2.43;90.29;100549.39;432502;1318;142447;-59
2021/12/15 04:03:16;;;;;;;48.70;28.90;;;;;;;2.42;90.24;100552.86;430757;1316;144020;-59
2021/12/15 04:13:22;;;;;;;45.60;26.60;;;;;;;2.44;90.33;100544.53;426886;1318;142669;-58
2021/12/15 04:23:28;;;;;;;42.80;24.60;;;;;;;2.37;90.32;100544.63;431555;1318;142055;-58
2021/12/15 04:33:39;;;;;;;46.80;27.50;;;;;;;2.37;90.53;100549.98;432138;1318;142663;-59
2021/12/15 04:43:49;;;;;;;44.00;25.50;;;;;;;2.45;90.96;100561.98;425716;1319;142214;-58
2021/12/15 04:53:57;;;;;;;47.10;25.40;;;;;;;2.54;90.83;100561.14;432102;1319;143554;-59
2021/12/15 05:04:04;;;;;;;48.90;25.60;;;;;;;2.54;90.72;100565.46;432885;1319;142459;-58
2021/12/15 05:14:10;;;;;;;51.50;27.30;;;;;;;2.46;90.77;100571.98;430016;1318;142111;-59
2021/12/15 05:24:30;;;;;;;41.10;25.30;;;;;;;2.43;90.97;100573.74;431995;1319;144541;-58
2021/12/15 05:34:36;;;;;;;41.10;25.80;;;;;;;2.51;90.98;100577.96;432827;1318;142585;-59
2021/12/15 05:44:42;;;;;;;47.60;23.60;;;;;;;2.54;90.97;100589.33;432731;1321;141940;-59
2021/12/15 05:54:48;;;;;;;45.10;26.50;;;;;;;2.54;90.97;100596.58;432074;1319;144609;-59
2021/12/15 06:04:55;;;;;;;52.00;22.10;;;;;;;2.60;90.99;100595.98;432888;1319;143716;-59
2021/12/15 06:15:02;;;;;;;45.50;24.10;;;;;;;2.58;90.97;100594.45;425315;1319;141211;-51
2021/12/15 06:25:11;;;;;;;41.90;23.90;;;;;;;2.58;90.98;100598.60;422814;1319;143468;-48
2021/12/15 06:35:20;;;;;;;43.80;23.10;;;;;;;2.55;91.21;100606.95;432498;1319;144824;-54
2021/12/15 06:45:34;;;;;;;36.90;25.40;;;;;;;2.56;91.25;100619.38;432020;1320;143897;-51
2021/12/15 07:06:04;;;;;;;50.90;27.10;;;;;;;2.63;91.19;100656.27;420160;1323;141795;-58
2021/12/15 07:16:10;;;;;;;46.20;26.10;;;;;;;2.61;90.96;100667.18;423435;1319;142945;-58
2021/12/15 07:26:17;;;;;;;43.50;26.50;;;;;;;2.65;91.04;100675.27;429997;1320;143600;-58
2021/12/15 07:36:23;;;;;;;42.90;24.10;;;;;;;2.70;91.26;100685.57;432096;1319;144646;-59
2021/12/15 07:46:33;;;;;;;46.00;25.80;;;;;;;2.78;91.27;100694.09;432772;1319;141635;-59
2021/12/15 07:56:39;;;;;;;51.10;31.70;;;;;;;2.86;91.19;100688.45;432817;1320;143143;-59
2021/12/15 08:06:46;;;;;;;52.90;35.00;;;;;;;2.98;91.12;100694.52;431982;1318;143288;-59
2021/12/15 08:16:52;;;;;;;48.50;30.80;;;;;;;3.06;91.21;100703.90;432723;1315;142468;-62
2021/12/15 08:26:58;;;;;;;55.90;31.00;;;;;;;3.15;90.92;100707.41;431568;1319;143897;-57
2021/12/15 08:37:13;;;;;;;47.20;28.60;;;;;;;3.18;90.68;100714.62;429963;1315;142248;-71
2021/12/15 08:47:19;;;;;;;55.60;33.30;;;;;;;3.24;90.89;100715.23;420352;1318;143392;-63
2021/12/15 08:57:25;;;;;;;48.30;27.70;;;;;;;3.28;90.66;100708.23;430466;1319;142913;-60
2021/12/15 09:07:31;;;;;;;38.10;24.70;;;;;;;3.30;90.69;100707.87;431192;1318;142536;-60
2021/12/15 09:17:39;;;;;;;41.70;22.30;;;;;;;3.37;90.27;100708.61;432811;1318;143024;-60
2021/12/15 09:27:47;;;;;;;34.40;22.10;;;;;;;3.44;90.48;100708.69;427139;1320;143205;-66
2021/12/15 09:37:54;;;;;;;42.80;22.80;;;;;;;3.33;90.59;100707.46;432723;1317;142556;-60
2021/12/15 09:56:20;;;;;;;42.20;23.70;;;;;;;3.35;90.70;100700.34;430459;1318;142047;-59
2021/12/15 10:19:26;;;;;;;40.40;21.90;;;;;;;3.60;90.76;100681.56;432231;1319;142593;-64
2021/12/15 10:29:32;;;;;;;47.40;28.70;;;;;;;3.84;91.19;100667.29;430527;1321;142717;-65
2021/12/15 10:39:39;;;;;;;45.90;28.70;;;;;;;4.07;90.64;100653.69;431952;1319;142238;-64
2021/12/15 10:49:45;;;;;;;42.20;24.70;;;;;;;4.25;90.41;100653.85;429919;1315;141645;-62
2021/12/15 10:59:53;;;;;;;44.60;27.50;;;;;;;4.47;90.53;100632.56;432730;1315;141932;-62
2021/12/15 11:10:19;;;;;;;37.50;22.60;;;;;;;4.46;89.99;100641.43;432643;1315;143250;-59
2021/12/15 11:20:28;;;;;;;37.50;24.00;;;;;;;4.43;90.20;100632.50;431312;1318;142012;-62
2021/12/15 11:30:39;;;;;;;34.70;22.40;;;;;;;4.58;89.89;100622.61;427262;1317;693684;-61
2021/12/15 11:40:49;;;;;;;40.20;21.50;;;;;;;4.59;89.86;100624.14;428316;1318;142321;-67
2021/12/15 11:51:05;;;;;;;39.40;24.10;;;;;;;4.52;89.66;100627.61;430377;1319;142577;-63
2021/12/15 12:01:31;;;;;;;41.90;23.60;;;;;;;4.55;89.96;100633.25;432778;1318;142918;-64
2021/12/15 12:11:41;;;;;;;39.80;25.00;;;;;;;4.56;89.64;100634.45;432822;1317;141662;-67
2021/12/15 12:21:47;;;;;;;43.90;25.20;;;;;;;4.60;89.75;100640.44;432031;1316;142121;-64
2021/12/15 12:31:53;;;;;;;47.40;29.60;;;;;;;4.65;89.80;100635.83;432765;1318;142374;-66
2021/12/15 12:42:00;;;;;;;48.90;31.30;;;;;;;4.74;89.73;100638.93;431655;1319;142636;-66
2021/12/15 13:02:48;;;;;;;46.40;30.50;;;;;;;4.68;89.56;100638.17;431208;1318;141782;-62
2021/12/15 13:13:13;;;;;;;45.30;28.90;;;;;;;4.67;89.96;100632.47;432750;1318;141826;-65
2021/12/15 13:23:39;;;;;;;46.30;30.40;;;;;;;4.63;89.67;100638.64;429897;1318;142189;-70
2021/12/15 13:33:50;;;;;;;41.30;26.50;;;;;;;4.60;89.90;100641.82;430932;1315;141987;-59
2021/12/15 13:44:05;;;;;;;34.10;21.80;;;;;;;4.50;89.89;100648.98;431193;1316;142836;-67
2021/12/15 13:54:23;;;;;;;28.90;19.10;;;;;;;4.36;90.41;100651.18;430378;1318;141999;-69
2021/12/15 14:04:44;;;;;;;31.10;22.50;;;;;;;4.33;90.55;100659.21;432443;1318;141702;-71
2021/12/15 14:14:50;;;;;;;34.20;21.90;;;;;;;4.28;90.51;100667.13;428279;1316;140694;-69
2021/12/15 14:25:00;;;;;;;27.10;19.00;;;;;;;4.27;90.75;100669.06;432445;1316;141666;-66
2021/12/15 14:35:15;;;;;;;29.70;21.90;;;;;;;4.26;91.22;100671.14;432653;1318;142604;-61
2021/12/15 14:45:22;;;;;;;38.00;21.80;;;;;;;4.25;90.88;100660.94;430358;1318;143529;-66
2021/12/15 14:55:31;;;;;;;38.50;22.80;;;;;;;4.27;91.34;100663.69;432805;1318;142406;-69
2021/12/15 15:05:47;;;;;;;39.40;24.20;;;;;;;4.27;91.35;100671.64;431189;1318;141676;-65
2021/12/15 15:15:57;;;;;;;36.00;23.80;;;;;;;4.21;91.14;100676.98;423197;1319;142682;-67
2021/12/15 15:26:04;;;;;;;38.70;24.40;;;;;;;4.17;91.53;100674.98;419486;1314;142187;-66
2021/12/15 15:36:13;;;;;;;34.90;22.20;;;;;;;4.14;91.78;100669.30;431884;1318;143058;-63
2021/12/15 15:46:22;;;;;;;45.30;29.00;;;;;;;4.19;91.64;100652.92;431078;1318;142059;-61
2021/12/15 15:56:30;;;;;;;48.40;28.40;;;;;;;4.22;91.64;100628.42;432652;1318;142407;-65
2021/12/15 16:06:36;;;;;;;40.60;28.10;;;;;;;4.23;91.76;100629.27;432075;1318;142730;-60
2021/12/15 16:16:50;;;;;;;37.70;24.70;;;;;;;4.22;91.92;100648.34;424898;1318;142166;-61
2021/12/15 16:26:56;;;;;;;42.80;26.40;;;;;;;4.24;91.85;100657.31;430610;1318;152576;-60
2021/12/15 16:37:04;;;;;;;42.40;26.30;;;;;;;4.25;92.11;100659.04;432843;1318;142790;-61
2021/12/15 16:47:10;;;;;;;59.50;36.90;;;;;;;4.30;92.19;100658.06;432860;1318;141874;-60
2021/12/15 16:57:18;;;;;;;37.50;23.30;;;;;;;4.33;92.17;100657.67;432061;1316;143154;-62
2021/12/15 17:07:26;;;;;;;40.60;23.70;;;;;;;4.34;92.05;100658.66;432778;1315;141630;-70
2021/12/15 17:17:41;;;;;;;;;;;;;;;4.37;92.29;100665.05;432294;1314;143546;-70
2021/12/15 17:28:06;;;;;;;44.70;25.10;;;;;;;4.39;92.35;100660.67;432397;1318;127501;-67
2021/12/15 17:38:21;;;;;;;46.00;28.50;;;;;;;4.42;92.47;100675.31;427535;1318;141451;-68
2021/12/15 17:48:28;;;;;;;46.00;26.70;;;;;;;4.47;92.51;100681.13;426245;1319;142754;-66
2021/12/15 17:58:34;;;;;;;40.80;25.80;;;;;;;4.54;92.63;100670.56;432615;1316;142741;-66
2021/12/15 18:08:40;;;;;;;47.70;30.30;;;;;;;4.56;92.66;100679.19;432199;1319;141478;-63
2021/12/15 18:18:54;;;;;;;47.60;30.20;;;;;;;4.63;92.60;100667.08;431597;1318;142168;-64
2021/12/15 18:29:00;;;;;;;49.90;30.30;;;;;;;4.70;92.61;100669.19;419019;1317;141740;-63
2021/12/15 18:39:09;;;;;;;53.50;32.00;;;;;;;4.74;92.99;100665.45;420379;1317;142303;-63
2021/12/15 18:49:20;;;;;;;57.10;33.20;;;;;;;4.72;93.06;100668.27;432055;1320;142372;-63
2021/12/15 18:59:29;;;;;;;46.00;32.20;;;;;;;4.76;92.93;100670.78;432194;1317;141749;-62
2021/12/15 19:09:37;;;;;;;57.40;32.60;;;;;;;4.75;92.99;100645.48;431466;1318;144488;-61
2021/12/15 19:19:46;;;;;;;55.80;34.10;;;;;;;4.74;93.00;100643.42;432282;1320;142518;-61
2021/12/15 19:29:55;;;;;;;56.10;34.80;;;;;;;4.73;93.15;100644.48;431789;1319;165003;-59
2021/12/15 19:40:01;;;;;;;58.60;32.40;;;;;;;4.78;93.27;100655.64;430630;1316;141981;-61
2021/12/15 19:50:10;;;;;;;58.00;33.70;;;;;;;4.85;93.23;100666.08;430668;1321;143057;-63
2021/12/15 20:00:20;;;;;;;52.00;33.40;;;;;;;4.86;93.32;100670.90;431605;1316;141967;-68
2021/12/15 20:10:27;;;;;;;55.80;32.20;;;;;;;4.88;93.35;100670.51;432651;1319;142712;-69
2021/12/15 20:20:34;;;;;;;55.00;34.20;;;;;;;4.92;93.42;100668.52;430992;1318;142966;-71
2021/12/15 20:30:40;;;;;;;52.80;32.80;;;;;;;4.94;93.24;100666.40;432011;1318;142132;-71
2021/12/15 20:40:48;;;;;;;47.70;29.30;;;;;;;4.96;93.65;100672.06;432653;1317;142852;-66
2021/12/15 20:50:57;;;;;;;52.70;31.00;;;;;;;5.01;93.47;100668.31;418457;1318;142994;-66
2021/12/15 21:01:04;;;;;;;49.50;28.00;;;;;;;5.02;93.46;100652.31;424503;1318;143018;-64
2021/12/15 21:11:18;;;;;;;50.00;30.20;;;;;;;5.04;93.60;100643.07;431140;1315;141310;-65
2021/12/15 21:21:25;;;;;;;49.20;29.00;;;;;;;5.04;93.73;100643.58;423090;1318;141681;-65
2021/12/15 21:31:31;;;;;;;48.10;27.10;;;;;;;5.09;93.81;100643.82;432773;1318;143914;-66
2021/12/15 21:41:37;;;;;;;49.00;30.90;;;;;;;5.13;93.79;100639.39;432620;1318;142957;-66
2021/12/15 21:51:44;;;;;;;52.90;28.90;;;;;;;5.17;93.92;100646.57;431866;1319;142760;-67
2021/12/15 22:01:52;;;;;;;51.40;29.60;;;;;;;5.23;93.77;100644.87;430863;1320;142335;-65
2021/12/15 22:11:57;;;;;;;;;;;;;;;5.29;93.73;100641.94;427455;1319;142192;-71
2021/12/15 22:22:03;;;;;;;52.80;30.50;;;;;;;5.28;93.72;100643.34;432808;1315;128229;-72
2021/12/15 22:32:14;;;;;;;51.80;29.40;;;;;;;5.19;93.67;100632.98;431792;1320;146087;-72
2021/12/15 22:42:21;;;;;;;48.70;29.20;;;;;;;5.19;93.94;100628.64;425844;1318;141607;-71
2021/12/15 22:52:27;;;;;;;52.80;30.40;;;;;;;5.24;93.91;100634.78;432602;1319;144397;-72
2021/12/15 23:02:33;;;;;;;58.80;31.30;;;;;;;5.28;93.97;100635.38;432746;1319;142259;-73
2021/12/15 23:12:39;;;;;;;55.70;30.80;;;;;;;5.29;93.99;100630.14;426404;1318;141529;-71
2021/12/15 23:22:46;;;;;;;55.90;31.40;;;;;;;5.30;94.06;100632.39;423720;1318;141731;-71
2021/12/15 23:32:53;;;;;;;56.00;30.90;;;;;;;5.30;93.97;100633.94;432656;1317;141985;-70
2021/12/15 23:43:29;;;;;;;55.20;29.70;;;;;;;5.27;94.07;100629.49;423012;1320;197554;-71
